»·PEaware :: CGSTR KBLI-KBFI

CGSTR :: KBLI-KBFI

FLIGHT INFORMATION

Flight Status: Arrived
Operator: Unknown
More flights by this operator :: More flights under this callsign
Pilot: Francis E. (35205)
Aircraft: BEECH AIRCRAFT BARON
(BE58)
More flights by this aircraft type
Origin: KBLI Bellingham Intl
United States
Destination: KBFI Boeing Field/King Co Intl
United States
More flights between these airports :: More routes between these airports
Route: KIEN06 CVV
File this flight plan on PilotEdge
Remarks:
Altitude:
(Current/Filed)
3,000ft
Speed:
(Current/Filed)
150kts
Departed: 15-Jan-23 10:51 AM
Arrived: 15-Jan-23 11:25 AM
Distance/Time
Traveled:
76nm/0:34
Distance/Time
To Go:
Arrived

Flight Plot

Page will automatically refresh every two minutes.

Flight plan parsing failed; only flown route is shown


Map Options




Map Legend


Flown Route
Filed Route
Departure Airport
Arrival Airport
Navaid (VOR, NDB)
Fix

Horizontal Profiles

Position Reports

Time Latitude Longitude Heading Altitude Ground
Speed
15-Jan-23 09:50 48.793566 -122.532163 140 161ft 0kts
15-Jan-23 09:51 48.793566 -122.532163 140 161ft 0kts
15-Jan-23 09:52 48.793566 -122.532163 140 161ft 0kts
15-Jan-23 09:53 48.793566 -122.532163 140 161ft 0kts
15-Jan-23 10:00 48.793565 -122.532163 140 161ft 0kts
15-Jan-23 10:01 48.793565 -122.532163 140 161ft 0kts
15-Jan-23 10:02 48.793565 -122.532163 140 161ft 0kts
15-Jan-23 10:03 48.793565 -122.532163 140 161ft 0kts
15-Jan-23 10:04 48.793565 -122.532163 140 161ft 0kts
15-Jan-23 10:05 48.793565 -122.532163 140 161ft 0kts
15-Jan-23 10:06 48.793565 -122.532163 140 161ft 0kts
15-Jan-23 10:07 48.793565 -122.532163 140 161ft 0kts
15-Jan-23 10:08 48.793565 -122.532163 140 161ft 0kts
15-Jan-23 10:09 48.793565 -122.532163 140 161ft 0kts
15-Jan-23 10:10 48.793565 -122.532163 140 161ft 0kts
15-Jan-23 10:11 48.793547 -122.532140 139 161ft 0kts
15-Jan-23 10:12 48.793470 -122.532028 133 161ft 0kts
15-Jan-23 10:13 48.793470 -122.532028 133 161ft 0kts
15-Jan-23 10:14 48.793470 -122.532028 133 161ft 0kts
15-Jan-23 10:15 48.793470 -122.532028 133 161ft 0kts
15-Jan-23 10:16 48.793470 -122.532028 133 161ft 0kts
15-Jan-23 10:17 48.793470 -122.532028 133 161ft 0kts
15-Jan-23 10:18 48.793470 -122.532028 133 161ft 0kts
15-Jan-23 10:19 48.793470 -122.532028 133 161ft 0kts
15-Jan-23 10:20 48.793470 -122.532028 133 161ft 0kts
15-Jan-23 10:21 48.793470 -122.532028 133 161ft 0kts
15-Jan-23 10:22 48.793470 -122.532028 133 161ft 0kts
15-Jan-23 10:23 48.793470 -122.532028 133 161ft 0kts
15-Jan-23 10:24 48.793470 -122.532028 133 161ft 0kts
15-Jan-23 10:25 48.793470 -122.532028 133 161ft 0kts
15-Jan-23 10:26 48.793470 -122.532028 133 161ft 0kts
15-Jan-23 10:27 48.793470 -122.532028 133 161ft 0kts
15-Jan-23 10:28 48.793470 -122.532028 133 161ft 0kts
15-Jan-23 10:29 48.793470 -122.532028 133 161ft 0kts
15-Jan-23 10:30 48.793470 -122.532028 133 161ft 0kts
15-Jan-23 10:31 48.793470 -122.532028 133 161ft 0kts
15-Jan-23 10:32 48.793470 -122.532028 133 161ft 0kts
15-Jan-23 10:33 48.793470 -122.532028 133 161ft 0kts
15-Jan-23 10:34 48.793470 -122.532028 133 161ft 0kts
15-Jan-23 10:35 48.793470 -122.532028 133 161ft 0kts
15-Jan-23 10:36 48.793470 -122.532028 133 161ft 0kts
15-Jan-23 10:37 48.793470 -122.532028 133 161ft 0kts
15-Jan-23 10:38 48.793470 -122.532028 133 161ft 0kts
15-Jan-23 10:39 48.793470 -122.532028 133 161ft 0kts
15-Jan-23 10:40 48.793470 -122.532028 133 161ft 0kts
15-Jan-23 10:41 48.793470 -122.532028 133 161ft 0kts
15-Jan-23 10:42 48.793238 -122.531930 197 161ft 8kts
15-Jan-23 10:43 48.791717 -122.535060 218 161ft 8kts
15-Jan-23 10:44 48.789773 -122.535763 174 162ft 6kts
15-Jan-23 10:45 48.787776 -122.535805 180 168ft 12kts
15-Jan-23 10:46 48.784047 -122.535606 181 172ft 14kts
15-Jan-23 10:47 48.783625 -122.536044 254 170ft 0kts
15-Jan-23 10:48 48.783625 -122.536044 254 170ft 0kts
15-Jan-23 10:49 48.783625 -122.536044 254 170ft 0kts
15-Jan-23 10:50 48.786892 -122.537488 359 166ft 81kts
15-Jan-23 10:51 48.812608 -122.553608 275 1412ft 121kts
15-Jan-23 10:52 48.786310 -122.577955 197 2691ft 129kts
15-Jan-23 10:53 48.747801 -122.576934 178 3139ft 153kts
15-Jan-23 10:54 48.701550 -122.580643 182 3051ft 171kts
15-Jan-23 10:55 48.652908 -122.583883 190 2939ft 175kts
15-Jan-23 10:56 48.604917 -122.596137 192 2932ft 175kts
15-Jan-23 10:57 48.557415 -122.612462 195 2991ft 171kts
15-Jan-23 10:58 48.510454 -122.625697 181 3032ft 173kts
15-Jan-23 10:59 48.464009 -122.643564 193 3125ft 172kts
15-Jan-23 11:00 48.417896 -122.665526 190 3188ft 171kts
15-Jan-23 11:01 48.370135 -122.679754 189 3077ft 177kts
15-Jan-23 11:02 48.322565 -122.697756 194 3042ft 176kts
15-Jan-23 11:03 48.274657 -122.711753 194 2988ft 177kts
15-Jan-23 11:04 48.228003 -122.715327 164 2991ft 171kts
15-Jan-23 11:05 48.182378 -122.695851 162 2943ft 173kts
15-Jan-23 11:06 48.138124 -122.672795 159 3009ft 168kts
15-Jan-23 11:07 48.093125 -122.650772 158 2960ft 169kts
15-Jan-23 11:08 48.050091 -122.623159 138 2883ft 170kts
15-Jan-23 11:09 48.005526 -122.602155 165 2926ft 174kts
15-Jan-23 11:10 47.957331 -122.598499 195 2689ft 187kts
15-Jan-23 11:11 47.912061 -122.581651 168 3034ft 164kts
15-Jan-23 11:12 47.867562 -122.563443 165 3178ft 168kts
15-Jan-23 11:13 47.821074 -122.551407 178 3065ft 177kts
15-Jan-23 11:14 47.776954 -122.535900 161 2936ft 145kts
15-Jan-23 11:15 47.741990 -122.519649 158 2980ft 128kts
15-Jan-23 11:16 47.707731 -122.509177 171 2986ft 126kts
15-Jan-23 11:18 47.673927 -122.495595 158 3001ft 126kts
15-Jan-23 11:19 47.646710 -122.466533 119 2754ft 136kts
15-Jan-23 11:20 47.629195 -122.418346 126 2135ft 132kts
15-Jan-23 11:21 47.610737 -122.372730 122 1655ft 129kts
15-Jan-23 11:22 47.580923 -122.345343 146 1198ft 136kts
15-Jan-23 11:23 47.550879 -122.320298 148 288ft 101kts
15-Jan-23 11:24 47.530833 -122.303148 144 16ft 42kts
15-Jan-23 11:25 47.527329 -122.298799 52 17ft 5kts
15-Jan-23 11:26 47.528153 -122.298102 23 18ft 2kts
15-Jan-23 11:27 47.528617 -122.297468 240 19ft 0kts
15-Jan-23 11:28 47.528617 -122.297468 240 19ft 0kts

Navigation Log

Ident Type
Flight plan parsing failed, navigation log unavailable